Tlc Commander — WCY6477 — position and weather

sailwx.info

Track history (hours):
 
Tides and Currents Weather Stations Pressure Air Temp Water Temp Dewpoint Dewpoint Depression Visibility Wind Speed Wind Dir Waves Ship Positions

Tlc Commander

Owner: TLC MARINE SERVICE INC, LOCKPORT, LA. More information available from US FCC via Universal Licensing System and Coast Guard Vessel Documentation Center.

Last reported at 2018-May-12 13:56 UTC. Time now 2018-May-22 15:34 UTC.
Position N 27°44' W 082°46'.
Warning: this ship's position is 10 days out of date.

; draft 5.5 m.

Type: Tug. MMSI: 367006040.

Date/timePositionNaut miles runAvg speedWind from/ knotsBaromVisibWave heightAir tempDewpointWater temp
2018-May-12 13:56N 27°44' W 082°46'0 0.2
2018-May-12 13:20N 27°44' W 082°46'0 0.4
2018-May-12 13:00N 27°45' W 082°46'1 0.7
2018-May-12 12:07N 27°44' W 082°47'0 0.1
2018-May-12 11:57N 27°44' W 082°47'3 2.5
2018-May-12 10:54N 27°46' W 082°48'1 2.6
2018-May-12 10:29N 27°47' W 082°47'0 0.0
2018-May-12 09:52N 27°47' W 082°47'0 0.0
2018-May-12 09:30N 27°47' W 082°47'0 0.0
2018-May-12 08:53N 27°47' W 082°47'0 0.0
2018-May-11 12:45N 27°47' W 082°47'0 0.0
2018-May-11 12:30N 27°47' W 082°47'0 0.0
2018-May-11 11:45N 27°47' W 082°47'0 0.0
2018-May-11 11:24N 27°47' W 082°47'0 0.0
2018-May-11 10:45N 27°47' W 082°47'0 0.0
2018-May-11 10:25N 27°47' W 082°47'0 0.0
2018-May-11 10:00N 27°47' W 082°47'0 0.0
2018-May-11 09:30N 27°47' W 082°47'0 0.0
2018-May-11 08:50N 27°47' W 082°47'0 0.0
2018-May-11 08:27N 27°47' W 082°47'0 0.0
2018-May-10 23:11N 27°47' W 082°47'0 0.0
2018-May-10 11:42N 27°47' W 082°47'0 0.0
2018-May-10 11:15N 27°47' W 082°47'0 0.0
2018-May-10 10:58N 27°47' W 082°47'0 0.0
2018-May-10 10:30N 27°47' W 082°47'0 0.0
2018-May-09 11:11N 27°47' W 082°47'0 0.0
2018-May-09 11:00N 27°47' W 082°47'0 0.0
2018-May-09 10:23N 27°47' W 082°47'0 0.0
2018-May-09 09:51N 27°47' W 082°47'0 0.0
2018-May-09 09:30N 27°47' W 082°47'0 0.0
2018-May-09 07:53N 27°47' W 082°47'0 0.0
2018-May-09 07:22N 27°47' W 082°47'0 0.0
2018-May-08 07:41N 27°47' W 082°47'0 0.0
2018-May-08 07:26N 27°47' W 082°47'0 0.0
2018-May-07 10:16N 27°47' W 082°47'0 0.0
2018-May-07 09:49N 27°47' W 082°47'0 0.0
2018-May-07 09:30N 27°47' W 082°47'0 0.0
2018-May-07 04:23N 27°47' W 082°47'11 0.4
2018-May-05 22:57N 27°40' W 082°37'3 7.1
2018-May-05 22:30N 27°44' W 082°36'3 6.7
2018-May-05 22:00N 27°47' W 082°35'3 6.3
2018-May-05 21:30N 27°50' W 082°34'3 6.0
2018-May-05 21:00N 27°53' W 082°33'1 2.2
2018-May-05 20:30N 27°53' W 082°32'0 0.5
2018-May-05 20:00N 27°53' W 082°33'0 0.0
2018-May-05 19:30N 27°53' W 082°33'0 0.5
2018-May-05 19:00N 27°53' W 082°32'0 0.5
2018-May-05 18:30N 27°53' W 082°33'0 0.0
2018-May-05 18:00N 27°53' W 082°33'0 0.5
2018-May-05 17:30N 27°53' W 082°32'0 0.5
2018-May-05 17:00N 27°53' W 082°33'0 0.1
2018-May-05 16:30N 27°53' W 082°33'0 0.5
2018-May-05 16:00N 27°53' W 082°32'0 0.5
2018-May-05 15:30N 27°53' W 082°33'0 0.0
2018-May-05 15:00N 27°53' W 082°33'0 0.0
2018-May-05 14:30N 27°53' W 082°33'0 0.0
2018-May-05 14:00N 27°53' W 082°33'0 0.0
2018-May-05 13:30N 27°53' W 082°33'1 1.9
2018-May-05 13:00N 27°52' W 082°33'3 6.4
2018-May-05 12:30N 27°49' W 082°34'3 6.2
2018-May-05 12:00N 27°46' W 082°35'4 5.8
2018-May-05 11:19N 27°43' W 082°36'2 0.1
2018-May-03 21:16N 27°41' W 082°37'3 9.3
2018-May-03 21:00N 27°43' W 082°36'4 8.7
2018-May-03 20:30N 27°47' W 082°35'4 8.4
2018-May-03 20:00N 27°51' W 082°34'2 4.7
2018-May-03 19:30N 27°53' W 082°33'4 7.8
2018-May-03 19:00N 27°50' W 082°34'4 7.5
2018-May-03 18:30N 27°46' W 082°35'  
Track history (hours):
 
Tides and Currents Weather Stations Pressure Air Temp Water Temp Dewpoint Dewpoint Depression Visibility Wind Speed Wind Dir Waves Ship Positions

Tlc Commander

Owner: TLC MARINE SERVICE INC, LOCKPORT, LA. More information available from US FCC via Universal Licensing System and Coast Guard Vessel Documentation Center.

Last reported at 2018-May-12 13:56 UTC. Time now 2018-May-22 15:34 UTC.
Position N 27°44' W 082°46'.
Warning: this ship's position is 10 days out of date.

; draft 5.5 m.

Type: Tug. MMSI: 367006040.

Date/timePositionNaut miles runAvg speedWind from/ knotsBaromVisibWave heightAir tempDewpointWater temp
2018-May-12 13:56N 27°44' W 082°46'0 0.2
2018-May-12 13:20N 27°44' W 082°46'0 0.4
2018-May-12 13:00N 27°45' W 082°46'1 0.7
2018-May-12 12:07N 27°44' W 082°47'0 0.1
2018-May-12 11:57N 27°44' W 082°47'3 2.5
2018-May-12 10:54N 27°46' W 082°48'1 2.6
2018-May-12 10:29N 27°47' W 082°47'0 0.0
2018-May-12 09:52N 27°47' W 082°47'0 0.0
2018-May-12 09:30N 27°47' W 082°47'0 0.0
2018-May-12 08:53N 27°47' W 082°47'0 0.0
2018-May-11 12:45N 27°47' W 082°47'0 0.0
2018-May-11 12:30N 27°47' W 082°47'0 0.0
2018-May-11 11:45N 27°47' W 082°47'0 0.0
2018-May-11 11:24N 27°47' W 082°47'0 0.0
2018-May-11 10:45N 27°47' W 082°47'0 0.0
2018-May-11 10:25N 27°47' W 082°47'0 0.0
2018-May-11 10:00N 27°47' W 082°47'0 0.0
2018-May-11 09:30N 27°47' W 082°47'0 0.0
2018-May-11 08:50N 27°47' W 082°47'0 0.0
2018-May-11 08:27N 27°47' W 082°47'0 0.0
2018-May-10 23:11N 27°47' W 082°47'0 0.0
2018-May-10 11:42N 27°47' W 082°47'0 0.0
2018-May-10 11:15N 27°47' W 082°47'0 0.0
2018-May-10 10:58N 27°47' W 082°47'0 0.0
2018-May-10 10:30N 27°47' W 082°47'0 0.0
2018-May-09 11:11N 27°47' W 082°47'0 0.0
2018-May-09 11:00N 27°47' W 082°47'0 0.0
2018-May-09 10:23N 27°47' W 082°47'0 0.0
2018-May-09 09:51N 27°47' W 082°47'0 0.0
2018-May-09 09:30N 27°47' W 082°47'0 0.0
2018-May-09 07:53N 27°47' W 082°47'0 0.0
2018-May-09 07:22N 27°47' W 082°47'0 0.0
2018-May-08 07:41N 27°47' W 082°47'0 0.0
2018-May-08 07:26N 27°47' W 082°47'0 0.0
2018-May-07 10:16N 27°47' W 082°47'0 0.0
2018-May-07 09:49N 27°47' W 082°47'0 0.0
2018-May-07 09:30N 27°47' W 082°47'0 0.0
2018-May-07 04:23N 27°47' W 082°47'11 0.4
2018-May-05 22:57N 27°40' W 082°37'3 7.1
2018-May-05 22:30N 27°44' W 082°36'3 6.7
2018-May-05 22:00N 27°47' W 082°35'3 6.3
2018-May-05 21:30N 27°50' W 082°34'3 6.0
2018-May-05 21:00N 27°53' W 082°33'1 2.2
2018-May-05 20:30N 27°53' W 082°32'0 0.5
2018-May-05 20:00N 27°53' W 082°33'0 0.0
2018-May-05 19:30N 27°53' W 082°33'0 0.5
2018-May-05 19:00N 27°53' W 082°32'0 0.5
2018-May-05 18:30N 27°53' W 082°33'0 0.0
2018-May-05 18:00N 27°53' W 082°33'0 0.5
2018-May-05 17:30N 27°53' W 082°32'0 0.5
2018-May-05 17:00N 27°53' W 082°33'0 0.1
2018-May-05 16:30N 27°53' W 082°33'0 0.5
2018-May-05 16:00N 27°53' W 082°32'0 0.5
2018-May-05 15:30N 27°53' W 082°33'0 0.0
2018-May-05 15:00N 27°53' W 082°33'0 0.0
2018-May-05 14:30N 27°53' W 082°33'0 0.0
2018-May-05 14:00N 27°53' W 082°33'0 0.0
2018-May-05 13:30N 27°53' W 082°33'1 1.9
2018-May-05 13:00N 27°52' W 082°33'3 6.4
2018-May-05 12:30N 27°49' W 082°34'3 6.2
2018-May-05 12:00N 27°46' W 082°35'4 5.8
2018-May-05 11:19N 27°43' W 082°36'2 0.1
2018-May-03 21:16N 27°41' W 082°37'3 9.3
2018-May-03 21:00N 27°43' W 082°36'4 8.7
2018-May-03 20:30N 27°47' W 082°35'4 8.4
2018-May-03 20:00N 27°51' W 082°34'2 4.7
2018-May-03 19:30N 27°53' W 082°33'4 7.8
2018-May-03 19:00N 27°50' W 082°34'4 7.5
2018-May-03 18:30N 27°46' W 082°35'  

Dump ship's entire track history